• Join FlightAware (Why Join?)
  • Login
  • US Flag 
02:44AM EDT


 

Airport Tracker/Info


-or-


 

Live Flight TrackerFlight Track Log ✈ EJA314 ✈ 10-Oct-2013 ✈ KMTJ - KBZN

Flight Track Log - Related Links

Times and Time Zones

All times are in EDT time to prevent confusion due to time zone crossing. See the EJA314 flight status page for this flight to view local times or setup timezone preferences in your user account.

Time Position Orientation Groundspeed Altitude Reporting Facility
EDT Latitude Longitude Course Direction KTS MPH feet Rate Location/Type
05:53PM 38.4982 -107.8961 90° East 5,900  Level FlightAware ADS-B (KMTJ)
05:57PM 38.4982 -107.8961 180° South 5,900  Level FlightAware ADS-B (KMTJ)
06:05PM 38.4982 -107.8961 270° West 5,900  Level FlightAware ADS-B (KMTJ)
06:08PM 38.7138 -107.9611 347° North  Level FlightAware Approximate
06:08PM 38.4982 -107.8961 347° North  Level FlightAware ADS-B (KMTJ)
06:10PM 38.4982 -107.8961 270° West 5,900 240 Climbing FlightAware ADS-B (KMTJ)
06:12PM 38.4982 -107.8961 180° South  Descending FlightAware ADS-B (KMTJ)
06:15PM 38.6987 -107.9568 347° North  Level FlightAware Approximate
06:16PM 38.7887 -107.9851 345° North  Level FlightAware Approximate
06:17PM 38.8766 -108.0216 339° North  Level FlightAware Approximate
06:18PM 38.9652 -108.0492 339° North  Level FlightAware Approximate
06:19PM 39.0535 -108.0845 346° North  Level FlightAware Approximate
06:20PM 39.1431 -108.1144 345° North  Level FlightAware Approximate
06:21PM 39.2328 -108.1442 346° North  Level FlightAware Approximate
06:22PM 39.3226 -108.1734 347° North  Level FlightAware Approximate
06:23PM 39.4128 -108.2005 347° North  Level FlightAware Approximate
06:24PM 39.5014 -108.2340 339° North  Level FlightAware Approximate
06:25PM 39.5886 -108.2740 346° North  Level FlightAware Approximate
06:26PM 39.6785 -108.3029 349° North  Level FlightAware Approximate
06:27PM 39.7681 -108.3321 341° North  Level FlightAware Approximate
06:28PM 39.8558 -108.3710 341° North  Level FlightAware Approximate
06:29PM 39.9448 -108.4037 346° North  Level FlightAware Approximate
06:33PM 38.5138 -107.8928 360° North 148 170 6,000  Level FlightAware ADS-B (KMTJ)
06:33PM 38.5322 -107.8935 358° North 181 208 7,000 2,400 Climbing FlightAware ADS-B (KMTJ)
06:33PM 38.5511 -107.8943 358° North 226 260 7,800 3,000 Climbing FlightAware ADS-B (KMTJ)
06:34PM 38.5969 -107.9078 347° North 268 308 10,000 3,840 Climbing FlightAware ADS-B (KMTJ)
06:34PM 38.6329 -107.9201 345° North 273 314 12,300 4,080 Climbing FlightAware ADS-B (KMTJ)
06:36PM 38.7182 -107.9544 343° North 294 338 16,700 3,480 Climbing FlightAware ADS-B (KMTJ)
06:36PM 38.7613 -107.9721 342° North 315 362 18,200 3,120 Climbing FlightAware ADS-B (KMTJ)
06:37PM 38.8039 -107.9893 343° North 320 368 20,000 2,940 Climbing FlightAware ADS-B (KMTJ)
06:37PM 38.8515 -108.0086 343° North 338 389 21,300 2,640 Climbing FlightAware ADS-B (KMTJ)
06:38PM 38.8965 -108.0266 343° North 341 392 22,800 2,520 Climbing FlightAware ADS-B (KMTJ)
06:38PM 38.9474 -108.0473 342° North 356 410 24,000 2,280 Climbing FlightAware ADS-B (KMTJ)
06:39PM 38.9953 -108.0667 343° North 362 417 25,200 1,860 Climbing FlightAware ADS-B (KMTJ)
06:39PM 39.0491 -108.0887 342° North 385 443 26,000 1,740 Climbing FlightAware ADS-B (KMTJ)
06:40PM 39.1215 -108.1182 342° North 394 453 27,400 2,460 Climbing FlightAware ADS-B (KMTJ)
06:40PM 39.1749 -108.1399 342° North 386 444 29,000 2,340 Climbing FlightAware ADS-B (KMTJ)
06:41PM 39.2329 -108.1636 342° North 401 461 29,900 1,800 Climbing FlightAware ADS-B (KMTJ)
06:42PM 39.2858 -108.1852 342° North 406 467 30,900 2,040 Climbing FlightAware ADS-B (KMTJ)
06:42PM 39.3414 -108.2081 342° North 408 470 32,000 2,280 Climbing FlightAware ADS-B (KMTJ)
06:43PM 39.3970 -108.2310 342° North 402 463 33,300 2,340 Climbing FlightAware ADS-B (KMTJ)
06:43PM 39.4533 -108.2542 342° North 394 453 34,500 2,100 Climbing FlightAware ADS-B (KMTJ)
06:44PM 39.5048 -108.2755 342° North 387 445 35,500 1,380 Climbing FlightAware ADS-B (KMTJ)
06:44PM 39.5631 -108.2996 342° North 399 459 36,000 420 Climbing FlightAware ADS-B (KMTJ)
06:45PM 39.6232 -108.3246 342° North 422 486 36,000  Level FlightAware ADS-B (KMTJ)
06:45PM 39.6804 -108.3483 342° North 439 505 36,000  Level FlightAware ADS-B (KMTJ)
06:46PM 39.7392 -108.3728 342° North 453 521 36,000  Level FlightAware ADS-B (KMTJ)
06:46PM 39.8041 -108.3997 342° North 462 532 36,000  Level FlightAware ADS-B (KMTJ)
06:47PM 39.8756 -108.4295 342° North 472 543 36,000  Level FlightAware ADS-B (KMTJ)
06:47PM 39.9369 -108.4552 342° North 476 548 36,000  Level FlightAware ADS-B (KMTJ)
06:48PM 40.0054 -108.4838 342° North 475 547 36,000  Level FlightAware ADS-B (KMTJ)
06:48PM 40.0683 -108.5102 342° North 473 544 36,000  Level FlightAware ADS-B (KMTJ)
06:49PM 40.1309 -108.5365 342° North 472 543 36,000  Level FlightAware ADS-B (KMTJ)
06:49PM 40.1968 -108.5642 342° North 472 543 36,000  Level FlightAware ADS-B (KMTJ)
06:50PM 40.2611 -108.5914 342° North 470 541 36,000  Level FlightAware ADS-B (KMTJ)
06:50PM 40.3296 -108.6204 342° North 470 541 36,000  Level FlightAware ADS-B (KMTJ)
06:51PM 40.4001 -108.6503 342° North 469 540 36,000  Level FlightAware ADS-B (KMTJ)
06:52PM 40.4643 -108.6776 342° North 469 540 36,000  Level FlightAware ADS-B (KMTJ)
06:52PM 40.5303 -108.7057 342° North 470 541 36,000  Level FlightAware ADS-B (KMTJ)
06:53PM 40.5942 -108.7331 342° North 469 540 36,000  Level FlightAware ADS-B (KMTJ)
06:53PM 40.6621 -108.7621 342° North 469 540 36,000  Level FlightAware ADS-B (KMTJ)
06:54PM 40.7386 -108.7964 342° North 468 539 36,000  Level Denver Center
06:55PM 40.8569 -108.8464 342° North 467 537 36,000  Level Denver Center
06:56PM 40.9558 -108.8894 342° North 467 537 36,000  Level Salt Lake Center
06:57PM 41.0736 -108.9400 342° North 467 537 36,000  Level Salt Lake Center
06:58PM 41.2094 -108.9983 342° North 462 532 36,000  Level Salt Lake Center
06:59PM 41.3247 -109.0481 342° North 458 527 36,000  Level Salt Lake Center
07:00PM 41.4592 -109.1106 341° North 461 531 36,000  Level Salt Lake Center
07:01PM 41.5897 -109.1661 342° North 465 535 36,000  Level Salt Lake Center
07:02PM 41.7081 -109.2183 342° North 467 537 36,000  Level Salt Lake Center
07:03PM 41.8456 -109.2800 342° North 467 537 36,000  Level Salt Lake Center
07:04PM 41.9636 -109.3325 342° North 467 537 36,000  Level Salt Lake Center
07:05PM 42.0828 -109.3861 342° North 469 540 36,000  Level Salt Lake Center
07:06PM 42.2214 -109.4497 341° North 471 542 36,000  Level Salt Lake Center
07:07PM 42.3403 -109.5042 341° North 471 542 36,000  Level Salt Lake Center
07:08PM 42.4789 -109.5667 342° North 472 543 36,000  Level Salt Lake Center
07:09PM 42.5975 -109.6211 341° North 471 542 36,000  Level Salt Lake Center
07:10PM 42.7364 -109.6844 341° North 472 543 36,000  Level Salt Lake Center
07:11PM 42.8539 -109.7367 342° North 466 536 36,000  Level Salt Lake Center
07:12PM 42.9683 -109.7911 341° North 457 526 36,000  Level Salt Lake Center
07:13PM 43.0936 -109.8486 341° North 458 527 36,000  Level Salt Lake Center
07:14PM 43.2297 -109.9122 341° North 458 527 36,000  Level Salt Lake Center
07:15PM 43.3553 -109.9667 343° North 460 529 36,000  Level Salt Lake Center
07:16PM 43.4706 -110.0236 340° North 460 529 36,000  Level Salt Lake Center
07:17PM 43.5975 -110.0836 341° North 459 528 36,000  Level Salt Lake Center
07:18PM 43.7325 -110.1439 342° North 458 527 36,000  Level Salt Lake Center
07:19PM 43.8464 -110.2003 340° North 456 525 36,000 -300 Level Salt Lake Center
07:20PM 43.9622 -110.2553 341° North 459 528 35,500 -1,080 Descending Salt Lake Center
07:21PM 44.0950 -110.3206 341° North 454 522 33,800 -1,500 Descending Salt Lake Center
07:22PM 44.2117 -110.3744 342° North 460 529 32,400 -1,500 Descending Salt Lake Center
07:23PM 44.3444 -110.4383 341° North 454 522 30,800 -1,200 Descending Salt Lake Center
07:24PM 44.4622 -110.4956 341° North 469 540 30,000 -420 Descending Salt Lake Center
07:25PM 44.5961 -110.5619 341° North 460 529 30,000  Level Salt Lake Center
07:26PM 44.7106 -110.6183 341° North 458 527 30,000 -540 Level Salt Lake Center
07:28PM 44.8464 -110.6844 341° North 461 531 28,900 -1,800 Descending Salt Lake Center
07:29PM 44.9547 -110.7381 341° North 437 503 26,400 -2,880 Descending Salt Lake Center
07:30PM 45.0800 -110.8003 341° North 429 494 23,000 -3,240 Descending Salt Lake Center
07:31PM 45.1964 -110.8578 341° North 423 487 19,800 -3,120 Descending Salt Lake Center
07:32PM 45.3047 -110.9097 341° North 407 468 16,600 -2,940 Descending Salt Lake Center
07:33PM 45.4083 -110.9639 340° North 389 448 13,800 -1,800 Descending Salt Lake Center
07:34PM 45.4958 -111.0183 336° Northwest 334 384 13,000 -720 Descending Salt Lake Center
07:35PM 45.5678 -111.0831 328° Northwest 302 348 12,400 -1,020 Descending Salt Lake Center
07:36PM 45.6392 -111.1483 327° Northwest 300 345 11,000 -1,800 Descending Salt Lake Center
07:37PM 45.7008 -111.2044 328° Northwest 255 293 8,700 -2,340 Descending Salt Lake Center
07:38PM 45.7525 -111.2500 328° Northwest 206 237 6,200 -1,380 Descending Salt Lake Center
07:39PM 45.7961 -111.2628 348° North 160 184 5,900 -360 Descending Salt Lake Center
07:40PM 45.8150 -111.2144 61° Northeast 147 169 5,500 -720 Descending Salt Lake Center
07:41PM 45.7917 -111.1719 128° Southeast 128 147 4,500 -1,020 Descending Salt Lake Center